Terminal Aerodrome Forecast
Issued by NWS Newport/Morehead City, NC

Home | Current Version | Previous Version | Graphics & Text | Print | Product List | Glossary On
Versions: 1 2 3 4 5 6 7 8 9 10 11 12 13 14 15 16 17 18 19 20 21 22
231
FTUS42 KMHX 051140
TAFEWN
TAF
KEWN 051140Z 0512/0612 34016G24KT P6SM VCSH SCT009 BKN019
     FM051430 34016G24KT P6SM SCT025 BKN040
     FM051600 33015G20KT P6SM SCT090
     FM052230 35003KT P6SM SKC=

USA.gov is the U.S. government's official web portal to all federal, state and local government web resources and services.